sensor_id;sensor_type;location;lat;lon;timestamp;P1;durP1;ratioP1;P2;durP2;ratioP2
15764;SDS011;7983;50.744;7.086;2022-07-01T00:02:06;2.25;;;1.60;;
15764;SDS011;7983;50.744;7.086;2022-07-01T00:04:34;1.75;;;1.50;;
15764;SDS011;7983;50.744;7.086;2022-07-01T00:07:02;2.40;;;1.67;;
15764;SDS011;7983;50.744;7.086;2022-07-01T00:09:28;1.83;;;1.40;;
15764;SDS011;7983;50.744;7.086;2022-07-01T00:11:56;2.42;;;1.70;;
15764;SDS011;7983;50.744;7.086;2022-07-01T00:14:24;2.25;;;1.48;;
15764;SDS011;7983;50.744;7.086;2022-07-01T00:16:50;1.58;;;1.48;;
15764;SDS011;7983;50.744;7.086;2022-07-01T00:19:16;1.88;;;1.20;;
15764;SDS011;7983;50.744;7.086;2022-07-01T00:21:42;1.67;;;1.40;;
15764;SDS011;7983;50.744;7.086;2022-07-01T00:24:07;1.73;;;1.40;;
15764;SDS011;7983;50.744;7.086;2022-07-01T00:26:33;1.90;;;1.50;;
15764;SDS011;7983;50.744;7.086;2022-07-01T00:28:59;2.67;;;1.38;;
15764;SDS011;7983;50.744;7.086;2022-07-01T00:31:26;1.40;;;1.20;;
15764;SDS011;7983;50.744;7.086;2022-07-01T00:33:52;1.90;;;1.20;;
15764;SDS011;7983;50.744;7.086;2022-07-01T00:36:18;2.88;;;1.60;;
15764;SDS011;7983;50.744;7.086;2022-07-01T00:38:46;1.92;;;1.48;;
15764;SDS011;7983;50.744;7.086;2022-07-01T00:41:11;1.83;;;1.50;;
15764;SDS011;7983;50.744;7.086;2022-07-01T00:43:37;1.98;;;1.50;;
15764;SDS011;7983;50.744;7.086;2022-07-01T00:46:04;2.03;;;1.67;;
15764;SDS011;7983;50.744;7.086;2022-07-01T00:48:31;1.90;;;1.60;;
15764;SDS011;7983;50.744;7.086;2022-07-01T00:51:01;2.47;;;1.80;;
15764;SDS011;7983;50.744;7.086;2022-07-01T00:53:27;2.00;;;1.80;;
15764;SDS011;7983;50.744;7.086;2022-07-01T00:55:53;2.83;;;1.88;;
15764;SDS011;7983;50.744;7.086;2022-07-01T00:58:19;1.70;;;1.50;;
15764;SDS011;7983;50.744;7.086;2022-07-01T01:00:49;2.10;;;1.55;;
15764;SDS011;7983;50.744;7.086;2022-07-01T01:03:15;1.95;;;1.30;;
15764;SDS011;7983;50.744;7.086;2022-07-01T01:05:42;2.10;;;1.50;;
15764;SDS011;7983;50.744;7.086;2022-07-01T01:08:10;1.70;;;1.45;;
15764;SDS011;7983;50.744;7.086;2022-07-01T01:10:37;1.65;;;1.40;;
15764;SDS011;7983;50.744;7.086;2022-07-01T01:13:03;1.90;;;1.70;;
15764;SDS011;7983;50.744;7.086;2022-07-01T01:15:29;2.00;;;1.50;;
15764;SDS011;7983;50.744;7.086;2022-07-01T01:17:56;1.75;;;1.48;;
15764;SDS011;7983;50.744;7.086;2022-07-01T01:20:22;1.77;;;1.60;;
15764;SDS011;7983;50.744;7.086;2022-07-01T01:22:47;1.70;;;1.50;;
15764;SDS011;7983;50.744;7.086;2022-07-01T01:25:16;2.45;;;1.45;;
15764;SDS011;7983;50.744;7.086;2022-07-01T01:27:42;2.40;;;1.83;;
15764;SDS011;7983;50.744;7.086;2022-07-01T01:30:09;3.05;;;1.50;;
15764;SDS011;7983;50.744;7.086;2022-07-01T01:32:36;2.03;;;1.83;;
15764;SDS011;7983;50.744;7.086;2022-07-01T01:35:03;2.15;;;1.60;;
15764;SDS011;7983;50.744;7.086;2022-07-01T01:37:29;2.55;;;1.80;;
15764;SDS011;7983;50.744;7.086;2022-07-01T01:39:55;3.88;;;1.80;;
15764;SDS011;7983;50.744;7.086;2022-07-01T01:42:23;4.05;;;1.60;;
15764;SDS011;7983;50.744;7.086;2022-07-01T01:44:53;2.30;;;1.60;;
15764;SDS011;7983;50.744;7.086;2022-07-01T01:47:22;1.83;;;1.48;;
15764;SDS011;7983;50.744;7.086;2022-07-01T01:49:47;1.80;;;1.30;;
15764;SDS011;7983;50.744;7.086;2022-07-01T01:52:16;2.53;;;1.70;;
15764;SDS011;7983;50.744;7.086;2022-07-01T01:54:44;2.22;;;1.50;;
15764;SDS011;7983;50.744;7.086;2022-07-01T01:57:11;3.38;;;1.70;;
15764;SDS011;7983;50.744;7.086;2022-07-01T01:59:39;1.40;;;1.30;;
15764;SDS011;7983;50.744;7.086;2022-07-01T02:02:08;3.60;;;1.60;;
15764;SDS011;7983;50.744;7.086;2022-07-01T02:04:34;1.67;;;1.50;;
15764;SDS011;7983;50.744;7.086;2022-07-01T02:07:00;1.30;;;1.20;;
15764;SDS011;7983;50.744;7.086;2022-07-01T02:09:25;1.17;;;1.08;;
15764;SDS011;7983;50.744;7.086;2022-07-01T02:11:54;1.27;;;1.17;;
15764;SDS011;7983;50.744;7.086;2022-07-01T02:14:20;3.22;;;1.38;;
15764;SDS011;7983;50.744;7.086;2022-07-01T02:16:45;2.95;;;1.20;;
15764;SDS011;7983;50.744;7.086;2022-07-01T02:19:11;2.97;;;1.10;;
15764;SDS011;7983;50.744;7.086;2022-07-01T02:21:39;1.63;;;1.00;;
15764;SDS011;7983;50.744;7.086;2022-07-01T02:24:07;2.60;;;1.20;;
15764;SDS011;7983;50.744;7.086;2022-07-01T02:26:34;1.17;;;1.05;;
15764;SDS011;7983;50.744;7.086;2022-07-01T02:29:00;2.03;;;1.40;;
15764;SDS011;7983;50.744;7.086;2022-07-01T02:31:26;1.23;;;1.10;;
15764;SDS011;7983;50.744;7.086;2022-07-01T02:33:52;1.10;;;1.00;;
15764;SDS011;7983;50.744;7.086;2022-07-01T02:36:22;1.67;;;1.10;;
15764;SDS011;7983;50.744;7.086;2022-07-01T02:38:48;1.75;;;1.02;;
15764;SDS011;7983;50.744;7.086;2022-07-01T02:41:14;1.35;;;1.05;;
15764;SDS011;7983;50.744;7.086;2022-07-01T02:43:39;1.95;;;1.02;;
15764;SDS011;7983;50.744;7.086;2022-07-01T02:46:08;1.88;;;1.00;;
15764;SDS011;7983;50.744;7.086;2022-07-01T02:48:33;1.02;;;0.90;;
15764;SDS011;7983;50.744;7.086;2022-07-01T02:50:59;1.27;;;0.90;;
15764;SDS011;7983;50.744;7.086;2022-07-01T02:53:24;1.20;;;0.75;;
15764;SDS011;7983;50.744;7.086;2022-07-01T02:55:50;1.40;;;1.10;;
15764;SDS011;7983;50.744;7.086;2022-07-01T02:58:18;1.20;;;1.10;;
15764;SDS011;7983;50.744;7.086;2022-07-01T03:00:44;1.50;;;1.10;;
15764;SDS011;7983;50.744;7.086;2022-07-01T03:03:13;3.22;;;1.30;;
15764;SDS011;7983;50.744;7.086;2022-07-01T03:05:41;1.65;;;1.20;;
15764;SDS011;7983;50.744;7.086;2022-07-01T03:08:07;2.20;;;1.17;;
15764;SDS011;7983;50.744;7.086;2022-07-01T03:10:33;1.67;;;1.25;;
15764;SDS011;7983;50.744;7.086;2022-07-01T03:12:58;1.10;;;1.00;;
15764;SDS011;7983;50.744;7.086;2022-07-01T03:15:26;1.20;;;1.10;;
15764;SDS011;7983;50.744;7.086;2022-07-01T03:17:52;1.13;;;1.02;;
15764;SDS011;7983;50.744;7.086;2022-07-01T03:20:18;1.40;;;1.20;;
15764;SDS011;7983;50.744;7.086;2022-07-01T03:22:46;1.15;;;1.00;;
15764;SDS011;7983;50.744;7.086;2022-07-01T03:25:17;1.23;;;1.08;;
15764;SDS011;7983;50.744;7.086;2022-07-01T03:27:43;1.40;;;1.23;;
15764;SDS011;7983;50.744;7.086;2022-07-01T03:30:13;2.30;;;1.42;;
15764;SDS011;7983;50.744;7.086;2022-07-01T03:32:42;2.58;;;1.45;;
15764;SDS011;7983;50.744;7.086;2022-07-01T03:35:10;1.40;;;1.20;;
15764;SDS011;7983;50.744;7.086;2022-07-01T03:37:56;1.52;;;1.40;;
15764;SDS011;7983;50.744;7.086;2022-07-01T03:40:22;2.03;;;1.20;;
15764;SDS011;7983;50.744;7.086;2022-07-01T03:42:50;1.40;;;1.25;;
15764;SDS011;7983;50.744;7.086;2022-07-01T03:45:16;1.52;;;1.10;;
15764;SDS011;7983;50.744;7.086;2022-07-01T03:47:48;1.38;;;1.27;;
15764;SDS011;7983;50.744;7.086;2022-07-01T03:50:15;1.30;;;1.10;;
15764;SDS011;7983;50.744;7.086;2022-07-01T03:52:41;1.27;;;1.17;;
15764;SDS011;7983;50.744;7.086;2022-07-01T03:55:11;1.35;;;1.10;;
15764;SDS011;7983;50.744;7.086;2022-07-01T03:57:39;1.20;;;1.10;;
15764;SDS011;7983;50.744;7.086;2022-07-01T04:00:07;1.40;;;1.20;;
15764;SDS011;7983;50.744;7.086;2022-07-01T04:02:35;1.95;;;1.20;;
15764;SDS011;7983;50.744;7.086;2022-07-01T04:05:01;1.35;;;1.17;;
15764;SDS011;7983;50.744;7.086;2022-07-01T04:07:27;1.25;;;1.10;;
15764;SDS011;7983;50.744;7.086;2022-07-01T04:09:55;1.52;;;1.17;;
15764;SDS011;7983;50.744;7.086;2022-07-01T04:12:23;1.20;;;1.10;;
15764;SDS011;7983;50.744;7.086;2022-07-01T04:14:51;2.50;;;1.20;;
15764;SDS011;7983;50.744;7.086;2022-07-01T04:17:19;1.52;;;1.15;;
15764;SDS011;7983;50.744;7.086;2022-07-01T04:19:44;1.45;;;1.20;;
15764;SDS011;7983;50.744;7.086;2022-07-01T04:22:13;2.08;;;1.20;;
15764;SDS011;7983;50.744;7.086;2022-07-01T04:24:57;1.80;;;1.30;;
15764;SDS011;7983;50.744;7.086;2022-07-01T04:27:23;2.70;;;1.20;;
15764;SDS011;7983;50.744;7.086;2022-07-01T04:29:49;1.33;;;1.23;;
15764;SDS011;7983;50.744;7.086;2022-07-01T04:32:14;1.45;;;1.20;;
15764;SDS011;7983;50.744;7.086;2022-07-01T04:34:40;1.13;;;0.98;;
15764;SDS011;7983;50.744;7.086;2022-07-01T04:37:10;1.90;;;1.05;;
15764;SDS011;7983;50.744;7.086;2022-07-01T04:39:37;2.42;;;1.13;;
15764;SDS011;7983;50.744;7.086;2022-07-01T04:42:03;4.40;;;1.10;;
15764;SDS011;7983;50.744;7.086;2022-07-01T04:44:36;2.70;;;1.40;;
15764;SDS011;7983;50.744;7.086;2022-07-01T04:47:02;1.40;;;1.10;;
15764;SDS011;7983;50.744;7.086;2022-07-01T04:49:29;1.13;;;1.02;;
15764;SDS011;7983;50.744;7.086;2022-07-01T04:51:56;1.15;;;1.02;;
15764;SDS011;7983;50.744;7.086;2022-07-01T04:54:25;1.77;;;1.00;;
15764;SDS011;7983;50.744;7.086;2022-07-01T04:56:54;1.80;;;1.25;;
15764;SDS011;7983;50.744;7.086;2022-07-01T04:59:20;1.52;;;1.17;;
15764;SDS011;7983;50.744;7.086;2022-07-01T05:01:46;1.77;;;1.00;;
15764;SDS011;7983;50.744;7.086;2022-07-01T05:04:17;1.70;;;1.00;;
15764;SDS011;7983;50.744;7.086;2022-07-01T05:06:43;1.65;;;1.20;;
15764;SDS011;7983;50.744;7.086;2022-07-01T05:09:11;2.53;;;1.15;;
15764;SDS011;7983;50.744;7.086;2022-07-01T05:11:38;2.33;;;1.25;;
15764;SDS011;7983;50.744;7.086;2022-07-01T05:14:04;1.55;;;1.05;;
15764;SDS011;7983;50.744;7.086;2022-07-01T05:16:30;2.85;;;1.17;;
15764;SDS011;7983;50.744;7.086;2022-07-01T05:18:58;3.10;;;1.10;;
15764;SDS011;7983;50.744;7.086;2022-07-01T05:21:42;1.65;;;1.02;;
15764;SDS011;7983;50.744;7.086;2022-07-01T05:24:28;1.33;;;1.08;;
15764;SDS011;7983;50.744;7.086;2022-07-01T05:26:56;3.08;;;1.30;;
15764;SDS011;7983;50.744;7.086;2022-07-01T05:29:22;2.83;;;1.48;;
15764;SDS011;7983;50.744;7.086;2022-07-01T05:31:48;2.67;;;1.38;;
15764;SDS011;7983;50.744;7.086;2022-07-01T05:34:14;3.33;;;1.35;;
15764;SDS011;7983;50.744;7.086;2022-07-01T05:36:42;2.92;;;1.42;;
15764;SDS011;7983;50.744;7.086;2022-07-01T05:39:08;4.28;;;1.35;;
15764;SDS011;7983;50.744;7.086;2022-07-01T05:41:33;5.57;;;1.42;;
15764;SDS011;7983;50.744;7.086;2022-07-01T05:43:59;2.88;;;1.50;;
15764;SDS011;7983;50.744;7.086;2022-07-01T05:46:28;3.53;;;1.58;;
15764;SDS011;7983;50.744;7.086;2022-07-01T05:48:53;2.13;;;1.40;;
15764;SDS011;7983;50.744;7.086;2022-07-01T05:51:22;2.72;;;1.33;;
15764;SDS011;7983;50.744;7.086;2022-07-01T05:53:48;1.92;;;1.08;;
15764;SDS011;7983;50.744;7.086;2022-07-01T05:56:14;2.97;;;1.30;;
15764;SDS011;7983;50.744;7.086;2022-07-01T05:58:40;3.45;;;1.30;;
15764;SDS011;7983;50.744;7.086;2022-07-01T06:01:08;2.53;;;1.30;;
15764;SDS011;7983;50.744;7.086;2022-07-01T06:03:34;2.97;;;1.33;;
15764;SDS011;7983;50.744;7.086;2022-07-01T06:06:04;2.58;;;1.25;;
15764;SDS011;7983;50.744;7.086;2022-07-01T06:08:30;1.38;;;1.10;;
15764;SDS011;7983;50.744;7.086;2022-07-01T06:10:56;1.35;;;1.20;;
15764;SDS011;7983;50.744;7.086;2022-07-01T06:13:21;1.40;;;1.00;;
15764;SDS011;7983;50.744;7.086;2022-07-01T06:15:47;1.83;;;1.15;;
15764;SDS011;7983;50.744;7.086;2022-07-01T06:18:13;2.72;;;1.50;;
15764;SDS011;7983;50.744;7.086;2022-07-01T06:20:41;3.70;;;1.27;;
15764;SDS011;7983;50.744;7.086;2022-07-01T06:23:06;1.23;;;1.10;;
15764;SDS011;7983;50.744;7.086;2022-07-01T06:25:32;2.55;;;1.50;;
15764;SDS011;7983;50.744;7.086;2022-07-01T06:28:00;2.75;;;1.40;;
15764;SDS011;7983;50.744;7.086;2022-07-01T06:30:26;2.78;;;1.70;;
15764;SDS011;7983;50.744;7.086;2022-07-01T06:32:51;2.08;;;1.30;;
15764;SDS011;7983;50.744;7.086;2022-07-01T06:35:22;2.88;;;1.30;;
15764;SDS011;7983;50.744;7.086;2022-07-01T06:37:47;2.92;;;1.30;;
15764;SDS011;7983;50.744;7.086;2022-07-01T06:40:18;2.05;;;1.20;;
15764;SDS011;7983;50.744;7.086;2022-07-01T06:42:43;2.15;;;1.30;;
15764;SDS011;7983;50.744;7.086;2022-07-01T06:45:09;2.40;;;1.65;;
15764;SDS011;7983;50.744;7.086;2022-07-01T06:47:36;1.35;;;1.10;;
15764;SDS011;7983;50.744;7.086;2022-07-01T06:50:02;2.40;;;1.20;;
15764;SDS011;7983;50.744;7.086;2022-07-01T06:52:28;1.75;;;1.40;;
15764;SDS011;7983;50.744;7.086;2022-07-01T06:54:56;4.68;;;1.40;;
15764;SDS011;7983;50.744;7.086;2022-07-01T06:57:22;3.33;;;1.17;;
15764;SDS011;7983;50.744;7.086;2022-07-01T06:59:48;2.95;;;1.45;;
15764;SDS011;7983;50.744;7.086;2022-07-01T07:02:14;1.30;;;0.95;;
15764;SDS011;7983;50.744;7.086;2022-07-01T07:04:39;1.20;;;1.08;;
15764;SDS011;7983;50.744;7.086;2022-07-01T07:07:08;2.15;;;1.30;;
15764;SDS011;7983;50.744;7.086;2022-07-01T07:09:35;2.20;;;1.30;;
15764;SDS011;7983;50.744;7.086;2022-07-01T07:12:01;1.52;;;1.30;;
15764;SDS011;7983;50.744;7.086;2022-07-01T07:14:30;2.83;;;1.20;;
15764;SDS011;7983;50.744;7.086;2022-07-01T07:17:00;1.30;;;1.17;;
15764;SDS011;7983;50.744;7.086;2022-07-01T07:19:26;1.38;;;1.10;;
15764;SDS011;7983;50.744;7.086;2022-07-01T07:21:52;1.48;;;1.27;;
15764;SDS011;7983;50.744;7.086;2022-07-01T07:24:17;1.38;;;1.13;;
15764;SDS011;7983;50.744;7.086;2022-07-01T07:26:47;3.03;;;1.38;;
15764;SDS011;7983;50.744;7.086;2022-07-01T07:29:13;2.28;;;1.25;;
15764;SDS011;7983;50.744;7.086;2022-07-01T07:31:41;3.67;;;1.20;;
15764;SDS011;7983;50.744;7.086;2022-07-01T07:34:06;1.50;;;1.10;;
15764;SDS011;7983;50.744;7.086;2022-07-01T07:36:32;1.58;;;1.10;;
15764;SDS011;7983;50.744;7.086;2022-07-01T07:38:58;1.70;;;1.20;;
15764;SDS011;7983;50.744;7.086;2022-07-01T07:41:25;2.58;;;1.23;;
15764;SDS011;7983;50.744;7.086;2022-07-01T07:43:51;2.10;;;1.02;;
15764;SDS011;7983;50.744;7.086;2022-07-01T07:46:17;1.30;;;0.95;;
15764;SDS011;7983;50.744;7.086;2022-07-01T07:48:45;1.95;;;1.10;;
15764;SDS011;7983;50.744;7.086;2022-07-01T07:51:10;6.57;;;1.13;;
15764;SDS011;7983;50.744;7.086;2022-07-01T07:53:40;2.55;;;1.15;;
15764;SDS011;7983;50.744;7.086;2022-07-01T07:56:06;2.47;;;1.30;;
15764;SDS011;7983;50.744;7.086;2022-07-01T07:58:34;2.88;;;1.02;;
15764;SDS011;7983;50.744;7.086;2022-07-01T08:01:01;2.00;;;1.30;;
15764;SDS011;7983;50.744;7.086;2022-07-01T08:03:29;1.52;;;1.20;;
15764;SDS011;7983;50.744;7.086;2022-07-01T08:05:55;3.75;;;1.20;;
15764;SDS011;7983;50.744;7.086;2022-07-01T08:08:23;5.00;;;1.15;;
15764;SDS011;7983;50.744;7.086;2022-07-01T08:10:48;2.45;;;1.30;;
15764;SDS011;7983;50.744;7.086;2022-07-01T08:13:14;2.90;;;1.00;;
15764;SDS011;7983;50.744;7.086;2022-07-01T08:15:42;2.38;;;1.02;;
15764;SDS011;7983;50.744;7.086;2022-07-01T08:18:08;1.67;;;0.98;;
15764;SDS011;7983;50.744;7.086;2022-07-01T08:20:34;1.88;;;0.90;;
15764;SDS011;7983;50.744;7.086;2022-07-01T08:22:59;1.77;;;0.95;;
15764;SDS011;7983;50.744;7.086;2022-07-01T08:25:25;1.58;;;0.90;;
15764;SDS011;7983;50.744;7.086;2022-07-01T08:27:55;1.05;;;0.80;;
15764;SDS011;7983;50.744;7.086;2022-07-01T08:30:21;0.98;;;0.65;;
15764;SDS011;7983;50.744;7.086;2022-07-01T08:32:51;1.75;;;0.80;;
15764;SDS011;7983;50.744;7.086;2022-07-01T08:35:21;2.30;;;0.88;;
15764;SDS011;7983;50.744;7.086;2022-07-01T08:37:47;1.85;;;0.90;;
15764;SDS011;7983;50.744;7.086;2022-07-01T08:40:14;1.15;;;0.82;;
15764;SDS011;7983;50.744;7.086;2022-07-01T08:42:41;1.58;;;0.95;;
15764;SDS011;7983;50.744;7.086;2022-07-01T08:45:08;1.30;;;0.88;;
15764;SDS011;7983;50.744;7.086;2022-07-01T08:47:34;4.93;;;1.17;;
15764;SDS011;7983;50.744;7.086;2022-07-01T08:50:15;0.90;;;0.70;;
15764;SDS011;7983;50.744;7.086;2022-07-01T08:52:44;2.55;;;0.90;;
15764;SDS011;7983;50.744;7.086;2022-07-01T08:55:09;1.60;;;1.00;;
15764;SDS011;7983;50.744;7.086;2022-07-01T08:57:35;1.77;;;0.93;;
15764;SDS011;7983;50.744;7.086;2022-07-01T09:00:02;1.38;;;0.90;;
15764;SDS011;7983;50.744;7.086;2022-07-01T09:05:19;1.60;;;0.80;;
15764;SDS011;7983;50.744;7.086;2022-07-01T09:07:46;1.48;;;0.95;;
15764;SDS011;7983;50.744;7.086;2022-07-01T09:10:16;1.23;;;0.80;;
15764;SDS011;7983;50.744;7.086;2022-07-01T09:12:44;2.17;;;0.70;;
15764;SDS011;7983;50.744;7.086;2022-07-01T09:15:24;1.45;;;1.00;;
15764;SDS011;7983;50.744;7.086;2022-07-01T09:17:53;2.58;;;0.80;;
15764;SDS011;7983;50.744;7.086;2022-07-01T09:20:23;1.88;;;0.85;;
15764;SDS011;7983;50.744;7.086;2022-07-01T09:22:59;1.00;;;0.73;;
15764;SDS011;7983;50.744;7.086;2022-07-01T09:25:39;1.38;;;0.77;;
15764;SDS011;7983;50.744;7.086;2022-07-01T09:30:44;0.90;;;0.70;;
15764;SDS011;7983;50.744;7.086;2022-07-01T09:35:43;0.93;;;0.60;;
15764;SDS011;7983;50.744;7.086;2022-07-01T09:38:11;1.13;;;0.90;;
15764;SDS011;7983;50.744;7.086;2022-07-01T09:43:30;1.23;;;0.80;;
15764;SDS011;7983;50.744;7.086;2022-07-01T09:46:02;1.25;;;0.63;;
15764;SDS011;7983;50.744;7.086;2022-07-01T09:50:58;1.02;;;0.70;;
15764;SDS011;7983;50.744;7.086;2022-07-01T09:53:25;2.63;;;0.75;;
15764;SDS011;7983;50.744;7.086;2022-07-01T09:55:51;1.00;;;0.60;;
15764;SDS011;7983;50.744;7.086;2022-07-01T09:58:16;2.10;;;0.90;;
15764;SDS011;7983;50.744;7.086;2022-07-01T10:00:42;1.20;;;0.60;;
15764;SDS011;7983;50.744;7.086;2022-07-01T10:03:09;0.88;;;0.70;;
15764;SDS011;7983;50.744;7.086;2022-07-01T10:05:39;0.90;;;0.70;;
15764;SDS011;7983;50.744;7.086;2022-07-01T10:14:00;0.98;;;0.68;;
15764;SDS011;7983;50.744;7.086;2022-07-01T10:16:30;1.67;;;0.65;;
15764;SDS011;7983;50.744;7.086;2022-07-01T10:18:56;0.88;;;0.60;;
15764;SDS011;7983;50.744;7.086;2022-07-01T10:21:28;0.60;;;0.45;;
15764;SDS011;7983;50.744;7.086;2022-07-01T10:26:57;1.23;;;0.70;;
15764;SDS011;7983;50.744;7.086;2022-07-01T10:29:35;1.17;;;0.70;;
15764;SDS011;7983;50.744;7.086;2022-07-01T10:34:40;1.20;;;0.60;;
15764;SDS011;7983;50.744;7.086;2022-07-01T10:37:10;0.77;;;0.60;;
15764;SDS011;7983;50.744;7.086;2022-07-01T10:40:10;1.23;;;0.60;;
15764;SDS011;7983;50.744;7.086;2022-07-01T10:42:35;1.08;;;0.45;;
15764;SDS011;7983;50.744;7.086;2022-07-01T10:45:26;0.85;;;0.50;;
15764;SDS011;7983;50.744;7.086;2022-07-01T10:48:17;1.55;;;0.55;;
15764;SDS011;7983;50.744;7.086;2022-07-01T10:50:47;0.68;;;0.57;;
15764;SDS011;7983;50.744;7.086;2022-07-01T10:53:15;2.40;;;0.60;;
15764;SDS011;7983;50.744;7.086;2022-07-01T10:55:46;2.28;;;0.60;;
15764;SDS011;7983;50.744;7.086;2022-07-01T10:58:13;2.50;;;2.08;;
15764;SDS011;7983;50.744;7.086;2022-07-01T11:00:41;1.95;;;1.20;;
15764;SDS011;7983;50.744;7.086;2022-07-01T11:03:14;1.70;;;1.10;;
15764;SDS011;7983;50.744;7.086;2022-07-01T11:05:45;1.30;;;0.80;;
15764;SDS011;7983;50.744;7.086;2022-07-01T11:08:12;0.73;;;0.70;;
15764;SDS011;7983;50.744;7.086;2022-07-01T11:10:39;1.67;;;1.10;;
15764;SDS011;7983;50.744;7.086;2022-07-01T11:13:12;1.80;;;0.90;;
15764;SDS011;7983;50.744;7.086;2022-07-01T11:15:39;1.70;;;0.75;;
15764;SDS011;7983;50.744;7.086;2022-07-01T11:18:08;0.57;;;0.50;;
15764;SDS011;7983;50.744;7.086;2022-07-01T11:20:34;0.82;;;0.50;;
15764;SDS011;7983;50.744;7.086;2022-07-01T11:23:00;0.63;;;0.40;;
15764;SDS011;7983;50.744;7.086;2022-07-01T11:25:29;0.93;;;0.50;;
15764;SDS011;7983;50.744;7.086;2022-07-01T11:27:57;1.33;;;0.50;;
15764;SDS011;7983;50.744;7.086;2022-07-01T11:30:23;2.13;;;0.60;;
15764;SDS011;7983;50.744;7.086;2022-07-01T11:32:54;0.88;;;0.60;;
15764;SDS011;7983;50.744;7.086;2022-07-01T11:35:25;0.68;;;0.60;;
15764;SDS011;7983;50.744;7.086;2022-07-01T11:38:16;0.73;;;0.50;;
15764;SDS011;7983;50.744;7.086;2022-07-01T11:41:08;1.20;;;0.70;;
15764;SDS011;7983;50.744;7.086;2022-07-01T11:43:44;1.35;;;0.70;;
15764;SDS011;7983;50.744;7.086;2022-07-01T11:46:10;2.05;;;0.70;;
15764;SDS011;7983;50.744;7.086;2022-07-01T11:51:09;0.80;;;0.40;;
15764;SDS011;7983;50.744;7.086;2022-07-01T11:53:37;1.52;;;0.77;;
15764;SDS011;7983;50.744;7.086;2022-07-01T11:56:08;1.02;;;0.80;;
15764;SDS011;7983;50.744;7.086;2022-07-01T11:58:41;1.05;;;0.60;;
15764;SDS011;7983;50.744;7.086;2022-07-01T12:01:30;1.10;;;0.50;;
15764;SDS011;7983;50.744;7.086;2022-07-01T12:03:57;2.33;;;1.30;;
15764;SDS011;7983;50.744;7.086;2022-07-01T12:06:25;1.17;;;0.90;;
15764;SDS011;7983;50.744;7.086;2022-07-01T12:08:51;1.95;;;1.42;;
15764;SDS011;7983;50.744;7.086;2022-07-01T12:11:22;2.58;;;1.02;;
15764;SDS011;7983;50.744;7.086;2022-07-01T12:13:52;1.85;;;1.10;;
15764;SDS011;7983;50.744;7.086;2022-07-01T12:16:19;1.58;;;1.15;;
15764;SDS011;7983;50.744;7.086;2022-07-01T12:18:56;1.08;;;0.75;;
15764;SDS011;7983;50.744;7.086;2022-07-01T12:21:27;1.08;;;0.77;;
15764;SDS011;7983;50.744;7.086;2022-07-01T12:24:07;0.60;;;0.60;;
15764;SDS011;7983;50.744;7.086;2022-07-01T12:26:34;1.65;;;0.70;;
15764;SDS011;7983;50.744;7.086;2022-07-01T12:29:02;0.73;;;0.55;;
15764;SDS011;7983;50.744;7.086;2022-07-01T12:31:28;1.25;;;0.80;;
15764;SDS011;7983;50.744;7.086;2022-07-01T12:33:56;0.70;;;0.57;;
15764;SDS011;7983;50.744;7.086;2022-07-01T12:36:22;1.70;;;0.60;;
15764;SDS011;7983;50.744;7.086;2022-07-01T12:38:59;1.13;;;0.70;;
15764;SDS011;7983;50.744;7.086;2022-07-01T12:41:31;0.65;;;0.55;;
15764;SDS011;7983;50.744;7.086;2022-07-01T12:43:58;0.60;;;0.40;;
15764;SDS011;7983;50.744;7.086;2022-07-01T12:46:43;1.52;;;0.70;;
15764;SDS011;7983;50.744;7.086;2022-07-01T12:49:18;0.75;;;0.50;;
15764;SDS011;7983;50.744;7.086;2022-07-01T12:51:55;0.60;;;0.60;;
15764;SDS011;7983;50.744;7.086;2022-07-01T12:54:31;0.98;;;0.70;;
15764;SDS011;7983;50.744;7.086;2022-07-01T12:57:03;0.70;;;0.50;;
15764;SDS011;7983;50.744;7.086;2022-07-01T12:59:31;1.00;;;0.60;;
15764;SDS011;7983;50.744;7.086;2022-07-01T13:01:57;1.00;;;0.50;;
15764;SDS011;7983;50.744;7.086;2022-07-01T13:04:26;0.65;;;0.40;;
15764;SDS011;7983;50.744;7.086;2022-07-01T13:06:53;1.08;;;0.57;;
15764;SDS011;7983;50.744;7.086;2022-07-01T13:09:19;1.98;;;0.68;;
15764;SDS011;7983;50.744;7.086;2022-07-01T13:11:45;1.45;;;0.85;;
15764;SDS011;7983;50.744;7.086;2022-07-01T13:14:11;1.55;;;1.00;;
15764;SDS011;7983;50.744;7.086;2022-07-01T13:16:37;1.55;;;1.00;;
15764;SDS011;7983;50.744;7.086;2022-07-01T13:19:02;1.60;;;0.80;;
15764;SDS011;7983;50.744;7.086;2022-07-01T13:21:31;1.65;;;0.95;;
15764;SDS011;7983;50.744;7.086;2022-07-01T13:23:57;1.23;;;0.90;;
15764;SDS011;7983;50.744;7.086;2022-07-01T13:26:24;1.27;;;0.75;;
15764;SDS011;7983;50.744;7.086;2022-07-01T13:28:55;0.98;;;0.77;;
15764;SDS011;7983;50.744;7.086;2022-07-01T13:31:20;2.92;;;1.90;;
15764;SDS011;7983;50.744;7.086;2022-07-01T13:33:46;2.35;;;1.33;;
15764;SDS011;7983;50.744;7.086;2022-07-01T13:36:14;2.33;;;1.25;;
15764;SDS011;7983;50.744;7.086;2022-07-01T13:38:40;1.65;;;0.95;;
15764;SDS011;7983;50.744;7.086;2022-07-01T13:41:06;1.50;;;0.90;;
15764;SDS011;7983;50.744;7.086;2022-07-01T13:43:35;0.77;;;0.70;;
15764;SDS011;7983;50.744;7.086;2022-07-01T13:46:00;1.35;;;0.70;;
15764;SDS011;7983;50.744;7.086;2022-07-01T13:48:28;1.15;;;0.70;;
15764;SDS011;7983;50.744;7.086;2022-07-01T13:50:54;1.20;;;0.43;;
15764;SDS011;7983;50.744;7.086;2022-07-01T13:53:22;0.75;;;0.40;;
15764;SDS011;7983;50.744;7.086;2022-07-01T13:55:50;0.68;;;0.50;;
15764;SDS011;7983;50.744;7.086;2022-07-01T13:58:15;2.40;;;0.70;;
15764;SDS011;7983;50.744;7.086;2022-07-01T14:00:42;0.82;;;0.50;;
15764;SDS011;7983;50.744;7.086;2022-07-01T14:03:08;0.40;;;0.40;;
15764;SDS011;7983;50.744;7.086;2022-07-01T14:05:36;0.40;;;0.40;;
15764;SDS011;7983;50.744;7.086;2022-07-01T14:08:03;2.55;;;0.60;;
15764;SDS011;7983;50.744;7.086;2022-07-01T14:10:29;0.40;;;0.40;;
15764;SDS011;7983;50.744;7.086;2022-07-01T14:12:55;0.55;;;0.43;;
15764;SDS011;7983;50.744;7.086;2022-07-01T14:15:24;0.80;;;0.60;;
15764;SDS011;7983;50.744;7.086;2022-07-01T14:17:49;0.82;;;0.57;;
15764;SDS011;7983;50.744;7.086;2022-07-01T14:20:20;1.30;;;0.50;;
15764;SDS011;7983;50.744;7.086;2022-07-01T14:22:48;1.30;;;0.68;;
15764;SDS011;7983;50.744;7.086;2022-07-01T14:25:14;1.20;;;0.45;;
15764;SDS011;7983;50.744;7.086;2022-07-01T14:27:42;0.98;;;0.60;;
15764;SDS011;7983;50.744;7.086;2022-07-01T14:30:10;1.05;;;0.40;;
15764;SDS011;7983;50.744;7.086;2022-07-01T14:32:40;1.17;;;0.60;;
15764;SDS011;7983;50.744;7.086;2022-07-01T14:35:09;1.30;;;0.70;;
15764;SDS011;7983;50.744;7.086;2022-07-01T14:37:35;0.50;;;0.45;;
15764;SDS011;7983;50.744;7.086;2022-07-01T14:40:05;1.60;;;0.52;;
15764;SDS011;7983;50.744;7.086;2022-07-01T14:42:31;0.63;;;0.55;;
15764;SDS011;7983;50.744;7.086;2022-07-01T14:44:57;1.55;;;0.40;;
15764;SDS011;7983;50.744;7.086;2022-07-01T14:47:22;1.10;;;0.60;;
15764;SDS011;7983;50.744;7.086;2022-07-01T14:49:51;1.10;;;0.60;;
15764;SDS011;7983;50.744;7.086;2022-07-01T14:52:20;0.70;;;0.43;;
15764;SDS011;7983;50.744;7.086;2022-07-01T14:54:47;1.20;;;0.55;;
15764;SDS011;7983;50.744;7.086;2022-07-01T14:57:14;0.70;;;0.40;;
15764;SDS011;7983;50.744;7.086;2022-07-01T14:59:40;0.32;;;0.32;;
15764;SDS011;7983;50.744;7.086;2022-07-01T15:02:06;1.38;;;0.60;;
15764;SDS011;7983;50.744;7.086;2022-07-01T15:04:32;1.85;;;0.70;;
15764;SDS011;7983;50.744;7.086;2022-07-01T15:06:58;0.60;;;0.40;;
15764;SDS011;7983;50.744;7.086;2022-07-01T15:09:24;1.00;;;0.60;;
15764;SDS011;7983;50.744;7.086;2022-07-01T15:11:51;1.23;;;0.50;;
15764;SDS011;7983;50.744;7.086;2022-07-01T15:14:20;1.25;;;0.50;;
15764;SDS011;7983;50.744;7.086;2022-07-01T15:16:46;1.60;;;0.50;;
15764;SDS011;7983;50.744;7.086;2022-07-01T15:19:14;3.50;;;0.70;;
15764;SDS011;7983;50.744;7.086;2022-07-01T15:21:40;0.80;;;0.50;;
15764;SDS011;7983;50.744;7.086;2022-07-01T15:24:06;1.33;;;0.40;;
15764;SDS011;7983;50.744;7.086;2022-07-01T15:26:31;0.35;;;0.30;;
15764;SDS011;7983;50.744;7.086;2022-07-01T15:28:57;0.50;;;0.50;;
15764;SDS011;7983;50.744;7.086;2022-07-01T15:31:27;1.83;;;0.50;;
15764;SDS011;7983;50.744;7.086;2022-07-01T15:33:54;0.82;;;0.40;;